Главная страница
METAR-TAF:

METAR-TAF

Аэропорты :

Бейрут, Ливан

широта: 33-49N, долгота: 035-29E, высота над уровнем моря: 29 м

METAR: отсутствует

Время: 02:48 (23:48 UTC)

Прогноз

Эта сводка был подготовлена 1 час и 48 минут назад, в 22:00 UTC
Прогноз действительный с 22-го 00 UTC до 23-го 06 UTC
Ветер 5 Узел от юго-юго-восточный
Видимость: 8000 м
Рассеянная облачность на высоте 3000 фута
изменения
С 22-го 06 UTC до 22-го 08 UTC
Ветер 10 Узел от западный
Отдельные облака на высоте 3000 фута
Вероятность 40% :
временами
С 22-го 06 UTC до 22-го 10 UTC
Видимость: 5000 м
дымка
изменения
между 15 и 00 UTC
Видимость 10 км и более
небольшая облачность на высоте 2600 фута

TAF: OLBA 212200Z 2200/2306 16005KT 8000 BKN030 BECMG 2206/2208 26010KT SCT030 PROB40 TEMPO 2206/2210 5000 BR BECMG 15004KT 9999 FEW026

Метеонаблюдения и прогнозы для более 4000 аэропортов (сводки METAR и TAF).

Имеющиеся станции представлены на карте желтыми и красными точками.

Чтобы увидеть название станции, наведите на нее мышь.

Затем щелкните, чтобы увидеть метеонаблюдения и метеопрогнозы.

Управление картой: чтобы увеличить масштаб, щелкните зеленые кнопки с черным крестиком; чтобы уменьшить масштаб, щелкните зеленую кнопку с тире; для просмотра соседних карт щелкайте зеленые стрелки.


METAR-TAF: